createdAt,value
2022-10-09T00:00:25.048Z,10.60
2022-10-09T00:02:56.732Z,10.60
2022-10-09T00:05:28.501Z,10.60
2022-10-09T00:08:00.327Z,10.50
2022-10-09T00:10:32.004Z,10.50
2022-10-09T00:13:04.997Z,10.40
2022-10-09T00:15:37.731Z,10.40
2022-10-09T00:18:10.337Z,10.30
2022-10-09T00:20:42.774Z,10.30
2022-10-09T00:23:16.567Z,10.20
2022-10-09T00:25:52.637Z,10.20
2022-10-09T00:28:27.107Z,10.20
2022-10-09T00:30:59.025Z,10.20
2022-10-09T00:33:30.682Z,10.10
2022-10-09T00:36:02.884Z,10.00
2022-10-09T00:38:35.066Z,10.00
2022-10-09T00:41:06.770Z,10.00
2022-10-09T00:43:44.251Z,10.00
2022-10-09T00:46:27.060Z,10.00
2022-10-09T00:49:01.846Z,9.90
2022-10-09T00:51:34.026Z,9.80
2022-10-09T00:54:07.790Z,9.80
2022-10-09T00:56:39.481Z,9.90
2022-10-09T00:59:12.881Z,9.90
2022-10-09T01:01:44.771Z,9.90
2022-10-09T01:04:16.493Z,9.70
2022-10-09T01:07:03.613Z,9.70
2022-10-09T01:09:39.895Z,9.80
2022-10-09T01:12:16.506Z,9.80
2022-10-09T01:14:56.603Z,9.80
2022-10-09T01:17:30.305Z,9.80
2022-10-09T01:20:16.915Z,9.80
2022-10-09T01:22:55.932Z,9.80
2022-10-09T01:25:32.287Z,9.80
2022-10-09T01:28:06.407Z,9.70
2022-10-09T01:30:38.357Z,9.70
2022-10-09T01:33:11.015Z,9.70
2022-10-09T01:35:43.234Z,9.70
2022-10-09T01:38:15.205Z,9.70
2022-10-09T01:40:46.884Z,9.80
2022-10-09T01:53:36.536Z,9.60
2022-10-09T01:56:11.635Z,9.70
2022-10-09T01:58:47.080Z,9.80
2022-10-09T02:01:21.337Z,9.70
2022-10-09T02:03:54.776Z,9.70
2022-10-09T02:06:27.191Z,9.70
2022-10-09T02:09:01.573Z,9.30
2022-10-09T02:11:33.410Z,9.70
2022-10-09T02:14:05.184Z,9.60
2022-10-09T02:16:37.949Z,9.60
2022-10-09T02:19:11.757Z,9.60
2022-10-09T02:21:46.541Z,9.60
2022-10-09T02:24:21.019Z,9.60
2022-10-09T02:26:53.419Z,10.60
2022-10-09T02:29:25.402Z,9.50
2022-10-09T02:31:57.070Z,9.50
2022-10-09T02:34:28.802Z,9.50
2022-10-09T02:37:00.420Z,9.50
2022-10-09T02:39:33.681Z,9.40
2022-10-09T02:42:05.410Z,9.40
2022-10-09T02:44:37.076Z,9.40
2022-10-09T02:47:08.714Z,9.40
2022-10-09T02:49:40.338Z,9.40
2022-10-09T02:59:52.134Z,9.30
2022-10-09T03:02:27.096Z,9.40
2022-10-09T03:04:59.378Z,9.30
2022-10-09T03:07:31.267Z,9.30
2022-10-09T03:20:21.970Z,8.90
2022-10-09T03:22:53.630Z,9.20
2022-10-09T03:25:25.279Z,9.10
2022-10-09T03:27:56.931Z,9.10
2022-10-09T03:30:28.553Z,9.10
2022-10-09T03:33:00.206Z,9.00
2022-10-09T03:35:33.210Z,9.00
2022-10-09T03:38:04.812Z,9.00
2022-10-09T03:40:36.459Z,9.00
2022-10-09T03:43:08.413Z,9.00
2022-10-09T03:45:40.686Z,8.90
2022-10-09T03:48:12.989Z,8.90
2022-10-09T03:50:45.979Z,8.90
2022-10-09T03:53:17.862Z,8.90
2022-10-09T03:58:23.563Z,8.70
2022-10-09T04:00:55.355Z,8.80
2022-10-09T04:03:27.507Z,8.80
2022-10-09T04:06:00.500Z,8.80
2022-10-09T04:08:32.112Z,8.80
2022-10-09T04:11:03.959Z,8.80
2022-10-09T04:16:12.718Z,8.30
2022-10-09T04:18:44.700Z,8.70
2022-10-09T04:23:50.790Z,8.60
2022-10-09T04:26:22.471Z,8.60
2022-10-09T04:28:54.950Z,8.60
2022-10-09T04:31:26.692Z,8.60
2022-10-09T04:33:58.386Z,8.60
2022-10-09T04:39:04.622Z,8.80
2022-10-09T04:41:38.477Z,8.50
2022-10-09T04:44:10.299Z,8.50
2022-10-09T04:46:41.959Z,8.50
2022-10-09T04:49:13.770Z,8.50
2022-10-09T04:51:45.439Z,8.50
2022-10-09T04:56:50.909Z,8.50
2022-10-09T04:59:22.580Z,8.60
2022-10-09T05:01:54.248Z,8.60
2022-10-09T05:04:25.911Z,8.60
2022-10-09T05:06:57.517Z,8.60
2022-10-09T05:09:29.229Z,8.60
2022-10-09T05:12:02.226Z,8.60
2022-10-09T05:14:33.880Z,8.60
2022-10-09T05:17:14.394Z,8.60
2022-10-09T05:19:46.693Z,8.60
2022-10-09T05:22:18.301Z,8.60
2022-10-09T05:24:49.956Z,8.60
2022-10-09T05:27:23.012Z,8.60
2022-10-09T05:29:54.734Z,8.60
2022-10-09T05:32:26.368Z,8.60
2022-10-09T05:34:58.020Z,8.70
2022-10-09T05:37:29.732Z,8.70
2022-10-09T05:40:01.507Z,8.70
2022-10-09T05:42:34.516Z,8.70
2022-10-09T05:45:08.435Z,8.70
2022-10-09T05:47:40.041Z,8.60
2022-10-09T05:50:11.870Z,8.70
2022-10-09T05:52:43.480Z,8.60
2022-10-09T05:55:15.252Z,8.70
2022-10-09T05:57:50.393Z,8.70
2022-10-09T06:00:22.041Z,8.70
2022-10-09T06:02:53.824Z,8.70
2022-10-09T06:05:25.623Z,8.70
2022-10-09T06:07:57.284Z,8.70
2022-10-09T06:10:32.303Z,8.70
2022-10-09T06:13:05.652Z,8.70
2022-10-09T06:15:37.288Z,8.70
2022-10-09T06:18:08.906Z,8.70
2022-10-09T06:20:40.621Z,8.70
2022-10-09T06:35:59.505Z,8.90
2022-10-09T06:38:36.026Z,9.20
2022-10-09T06:41:08.467Z,9.00
2022-10-09T06:43:40.517Z,9.00
2022-10-09T06:46:12.572Z,9.00
2022-10-09T06:48:44.239Z,9.00
2022-10-09T06:51:18.009Z,9.10
2022-10-09T06:53:50.247Z,9.00
2022-10-09T06:56:22.856Z,9.10
2022-10-09T06:58:54.782Z,9.10
2022-10-09T07:01:27.407Z,9.20
2022-10-09T07:04:00.198Z,9.20
2022-10-09T07:06:33.990Z,9.30
2022-10-09T07:09:06.387Z,9.30
2022-10-09T07:11:39.251Z,9.30
2022-10-09T07:14:12.296Z,9.30
2022-10-09T07:16:44.780Z,9.40
2022-10-09T07:19:17.478Z,9.40
2022-10-09T07:21:50.551Z,9.40
2022-10-09T07:24:24.546Z,9.50
2022-10-09T07:26:57.368Z,9.60
2022-10-09T07:29:29.022Z,9.60
2022-10-09T07:32:00.612Z,9.60
2022-10-09T07:34:32.269Z,9.60
2022-10-09T07:37:05.310Z,9.70
2022-10-09T07:39:38.181Z,9.60
2022-10-09T07:42:11.305Z,9.70
2022-10-09T07:44:42.989Z,9.70
2022-10-09T07:47:14.569Z,9.80
2022-10-09T07:49:46.182Z,10.00
2022-10-09T08:31:55.878Z,8.80
2022-10-09T08:34:27.666Z,8.80
2022-10-09T08:36:59.423Z,8.90
2022-10-09T08:39:32.259Z,9.20
2022-10-09T08:42:05.961Z,9.40
2022-10-09T08:44:39.466Z,9.60
2022-10-09T08:47:16.595Z,9.80
2022-10-09T08:49:50.538Z,10.10
2022-10-09T08:52:25.784Z,10.30
2022-10-09T08:54:59.291Z,10.40
2022-10-09T08:57:32.522Z,10.60
2022-10-09T09:00:06.721Z,10.80
2022-10-09T09:02:48.675Z,10.90
2022-10-09T09:05:28.807Z,11.10
2022-10-09T09:08:02.670Z,11.30
2022-10-09T09:10:41.272Z,11.40
2022-10-09T09:13:19.701Z,11.50
2022-10-09T09:15:57.144Z,11.70
2022-10-09T09:18:42.541Z,11.80
2022-10-09T09:21:24.235Z,11.90
2022-10-09T09:23:58.898Z,12.10
2022-10-09T09:26:30.782Z,12.20
2022-10-09T09:29:04.757Z,12.30
2022-10-09T09:31:37.638Z,12.40
2022-10-09T09:34:14.238Z,12.50
2022-10-09T09:36:49.793Z,12.60
2022-10-09T09:42:18.072Z,12.80
2022-10-09T09:44:56.243Z,13.00
2022-10-09T09:47:34.588Z,13.10
2022-10-09T09:50:23.302Z,13.20
2022-10-09T09:53:06.298Z,13.40
2022-10-09T09:55:38.173Z,13.50
2022-10-09T09:58:17.278Z,13.60
2022-10-09T10:00:57.019Z,13.80
2022-10-09T10:03:29.309Z,13.90
2022-10-09T10:06:03.096Z,14.00
2022-10-09T10:08:35.239Z,14.10
2022-10-09T10:11:07.666Z,14.20
2022-10-09T10:13:47.138Z,14.30
2022-10-09T10:16:23.457Z,14.40
2022-10-09T10:18:57.602Z,14.50
2022-10-09T10:21:40.112Z,14.60
2022-10-09T10:24:15.240Z,14.70
2022-10-09T10:26:51.021Z,14.90
2022-10-09T10:29:29.145Z,14.90
2022-10-09T10:32:07.940Z,15.00
2022-10-09T10:34:45.006Z,15.20
2022-10-09T10:37:38.664Z,15.30
2022-10-09T10:40:17.841Z,15.40
2022-10-09T10:43:16.598Z,15.50
2022-10-09T10:45:59.019Z,15.60
2022-10-09T10:48:33.820Z,15.70
2022-10-09T10:51:15.925Z,15.80
2022-10-09T10:54:02.881Z,15.90
2022-10-09T10:56:38.529Z,16.00
2022-10-09T10:59:26.805Z,16.10
2022-10-09T11:02:16.844Z,16.20
2022-10-09T11:04:57.952Z,16.30
2022-10-09T11:07:36.973Z,16.40
2022-10-09T11:10:20.056Z,16.50
2022-10-09T11:13:00.980Z,16.60
2022-10-09T11:15:45.846Z,16.70
2022-10-09T11:18:35.586Z,16.80
2022-10-09T11:21:20.662Z,16.90
2022-10-09T11:24:37.028Z,17.00
2022-10-09T11:27:17.438Z,17.20
2022-10-09T11:29:53.200Z,17.60
2022-10-09T11:32:30.491Z,18.00
2022-10-09T11:35:05.918Z,18.50
2022-10-09T11:37:39.300Z,19.00
2022-10-09T11:40:14.509Z,19.60
2022-10-09T11:42:54.369Z,20.20
2022-10-09T11:45:35.203Z,20.70
2022-10-09T11:48:16.305Z,21.20
2022-10-09T11:50:56.336Z,21.80
2022-10-09T11:53:31.353Z,22.30
2022-10-09T11:56:04.714Z,22.80
2022-10-09T11:58:37.817Z,23.40
2022-10-09T12:01:24.299Z,24.00
2022-10-09T12:04:06.258Z,24.50
2022-10-09T12:06:48.567Z,25.10
2022-10-09T12:09:24.847Z,25.70
2022-10-09T12:12:03.445Z,26.20
2022-10-09T12:14:38.189Z,26.90
2022-10-09T12:17:17.447Z,27.50
2022-10-09T12:19:53.322Z,28.00
2022-10-09T12:22:31.731Z,28.30
2022-10-09T12:25:12.868Z,28.80
2022-10-09T12:27:45.257Z,29.20
2022-10-09T12:30:21.956Z,29.70
2022-10-09T12:32:58.348Z,30.00
2022-10-09T12:35:34.225Z,30.30
2022-10-09T12:38:16.403Z,30.50
2022-10-09T12:40:48.773Z,30.80
2022-10-09T12:43:23.073Z,31.10
2022-10-09T12:45:56.661Z,31.30
2022-10-09T12:48:35.340Z,31.60
2022-10-09T12:51:15.163Z,31.90
2022-10-09T12:53:48.661Z,32.10
2022-10-09T12:56:23.646Z,32.40
2022-10-09T12:59:15.090Z,32.80
2022-10-09T13:01:50.060Z,33.00
2022-10-09T13:04:30.047Z,33.20
2022-10-09T13:07:06.492Z,33.40
2022-10-09T13:09:40.453Z,33.70
2022-10-09T13:12:17.404Z,34.00
2022-10-09T13:14:55.369Z,34.20
2022-10-09T13:20:24.806Z,34.30
2022-10-09T13:22:58.203Z,34.50
2022-10-09T13:25:35.963Z,34.60
2022-10-09T13:28:08.000Z,34.70
2022-10-09T13:30:39.877Z,34.80
2022-10-09T13:33:16.156Z,34.90
2022-10-09T13:35:48.134Z,34.90
2022-10-09T13:38:20.327Z,34.90
2022-10-09T13:40:52.251Z,34.90
2022-10-09T13:43:26.693Z,34.90
2022-10-09T13:45:58.902Z,34.90
2022-10-09T13:48:32.165Z,35.00
2022-10-09T13:51:05.816Z,34.90
2022-10-09T13:53:38.123Z,34.90
2022-10-09T13:56:09.921Z,34.90
2022-10-09T13:58:41.699Z,34.90
2022-10-09T14:01:13.648Z,34.90
2022-10-09T14:03:46.972Z,34.70
2022-10-09T14:06:18.927Z,34.70
2022-10-09T14:08:50.890Z,34.60
2022-10-09T14:11:22.717Z,34.60
2022-10-09T14:13:54.503Z,34.50
2022-10-09T14:16:26.581Z,34.40
2022-10-09T14:19:01.424Z,34.40
2022-10-09T14:21:33.847Z,34.40
2022-10-09T14:24:06.235Z,34.30
2022-10-09T14:26:38.356Z,34.20
2022-10-09T14:29:10.389Z,34.00
2022-10-09T14:31:42.277Z,33.90
2022-10-09T14:34:15.606Z,33.80
2022-10-09T14:36:47.838Z,33.70
2022-10-09T14:39:19.620Z,33.60
2022-10-09T14:41:51.457Z,33.40
2022-10-09T14:44:23.218Z,33.30
2022-10-09T14:46:54.982Z,33.10
2022-10-09T14:49:28.119Z,32.80
2022-10-09T14:51:59.923Z,32.50
2022-10-09T14:54:31.772Z,32.30
2022-10-09T14:57:03.724Z,32.00
2022-10-09T14:59:35.516Z,31.80
2022-10-09T15:02:07.401Z,31.50
2022-10-09T15:04:40.547Z,31.00
2022-10-09T15:07:12.373Z,30.70
2022-10-09T15:09:44.159Z,30.20
2022-10-09T15:12:15.941Z,29.80
2022-10-09T15:14:47.915Z,29.30
2022-10-09T15:17:19.666Z,29.00
2022-10-09T15:19:53.998Z,28.60
2022-10-09T15:22:25.738Z,28.20
2022-10-09T15:24:57.570Z,27.90
2022-10-09T15:27:29.375Z,27.60
2022-10-09T15:30:01.475Z,27.30
2022-10-09T15:32:33.243Z,27.00
2022-10-09T15:35:07.814Z,26.80
2022-10-09T15:37:39.697Z,26.50
2022-10-09T15:40:11.582Z,26.20
2022-10-09T15:42:44.988Z,26.00
2022-10-09T15:45:16.948Z,25.70
2022-10-09T15:47:51.185Z,25.50
2022-10-09T15:50:24.632Z,25.30
2022-10-09T15:52:57.455Z,25.20
2022-10-09T15:55:29.235Z,25.00
2022-10-09T15:58:01.020Z,24.80
2022-10-09T16:00:35.999Z,24.60
2022-10-09T16:03:08.289Z,24.50
2022-10-09T16:05:43.312Z,24.30
2022-10-09T16:08:16.445Z,24.20
2022-10-09T16:10:49.469Z,24.00
2022-10-09T16:13:21.746Z,23.80
2022-10-09T16:15:53.975Z,23.60
2022-10-09T16:18:25.940Z,23.50
2022-10-09T16:21:03.954Z,23.30
2022-10-09T16:23:36.623Z,23.10
2022-10-09T16:26:08.900Z,22.90
2022-10-09T16:28:40.949Z,22.70
2022-10-09T16:31:18.638Z,22.60
2022-10-09T16:33:51.095Z,22.40
2022-10-09T16:36:24.254Z,22.30
2022-10-09T16:38:56.662Z,22.10
2022-10-09T16:41:28.490Z,22.00
2022-10-09T16:44:00.349Z,21.80
2022-10-09T16:49:06.509Z,21.50
2022-10-09T16:51:39.643Z,21.30
2022-10-09T16:54:11.447Z,21.20
2022-10-09T16:56:43.259Z,21.00
2022-10-09T16:59:15.061Z,20.90
2022-10-09T17:01:49.420Z,20.80
2022-10-09T17:04:21.299Z,20.60
2022-10-09T17:06:54.488Z,20.50
2022-10-09T17:09:26.249Z,20.40
2022-10-09T17:11:57.984Z,20.30
2022-10-09T17:14:29.925Z,20.20
2022-10-09T17:17:01.757Z,20.10
2022-10-09T17:19:33.705Z,20.00
2022-10-09T17:22:07.129Z,19.90
2022-10-09T17:24:39.060Z,19.70
2022-10-09T17:27:10.999Z,19.60
2022-10-09T17:29:43.046Z,19.50
2022-10-09T17:32:15.113Z,19.50
2022-10-09T17:34:47.095Z,19.30
2022-10-09T17:37:20.267Z,19.20
2022-10-09T17:39:52.477Z,19.20
2022-10-09T17:42:24.455Z,19.00
2022-10-09T17:44:56.290Z,18.90
2022-10-09T17:47:28.426Z,18.80
2022-10-09T17:50:00.182Z,18.80
2022-10-09T17:52:33.309Z,18.70
2022-10-09T17:55:06.109Z,18.60
2022-10-09T17:57:37.939Z,18.50
2022-10-09T18:00:11.153Z,18.50
2022-10-09T18:02:43.033Z,18.40
2022-10-09T18:05:15.235Z,18.30
2022-10-09T18:07:48.679Z,18.30
2022-10-09T18:10:21.342Z,18.20
2022-10-09T18:12:53.299Z,18.10
2022-10-09T18:15:25.095Z,18.10
2022-10-09T18:17:57.081Z,18.00
2022-10-09T18:20:30.544Z,17.90
2022-10-09T18:23:04.162Z,17.90
2022-10-09T18:25:40.762Z,17.80
2022-10-09T18:28:12.994Z,17.80
2022-10-09T18:30:47.840Z,17.70
2022-10-09T18:33:19.734Z,17.70
2022-10-09T18:35:51.558Z,17.60
2022-10-09T18:38:24.740Z,17.50
2022-10-09T18:40:56.770Z,17.50
2022-10-09T18:43:28.800Z,17.40
2022-10-09T18:46:00.801Z,17.40
2022-10-09T18:48:36.773Z,17.60
2022-10-09T18:51:14.012Z,17.80
2022-10-09T18:53:51.556Z,18.10
2022-10-09T18:56:23.889Z,18.40
2022-10-09T18:58:55.749Z,18.60
2022-10-09T19:01:27.739Z,18.80
2022-10-09T19:03:59.792Z,19.10
2022-10-09T19:06:31.785Z,19.20
2022-10-09T19:09:05.679Z,19.40
2022-10-09T19:11:38.009Z,19.60
2022-10-09T19:14:09.829Z,19.80
2022-10-09T19:16:41.952Z,19.90
2022-10-09T19:19:14.000Z,20.00
2022-10-09T19:21:45.827Z,20.10
2022-10-09T19:24:18.940Z,20.10
2022-10-09T19:26:50.788Z,20.20
2022-10-09T19:29:23.041Z,20.30
2022-10-09T19:31:55.292Z,20.30
2022-10-09T19:34:27.159Z,20.40
2022-10-09T19:36:59.035Z,20.40
2022-10-09T19:39:32.431Z,20.50
2022-10-09T19:42:04.331Z,20.50
2022-10-09T19:44:37.042Z,20.50
2022-10-09T19:47:08.824Z,20.50
2022-10-09T19:49:40.893Z,20.50
2022-10-09T19:52:12.703Z,20.50
2022-10-09T19:54:45.890Z,20.50
2022-10-09T19:57:17.662Z,20.50
2022-10-09T19:59:49.641Z,20.50
2022-10-09T20:02:21.419Z,20.50
2022-10-09T20:04:53.305Z,20.50
2022-10-09T20:07:25.183Z,20.50
2022-10-09T20:09:58.397Z,20.50
2022-10-09T20:12:30.203Z,20.40
2022-10-09T20:15:02.060Z,20.50
2022-10-09T20:17:34.022Z,20.50
2022-10-09T20:20:06.909Z,20.50
2022-10-09T20:22:38.721Z,20.50
2022-10-09T20:25:11.820Z,20.50
2022-10-09T20:27:43.595Z,20.50
2022-10-09T20:30:15.605Z,20.50
2022-10-09T20:32:49.053Z,20.40
2022-10-09T20:35:21.280Z,20.50
2022-10-09T20:37:53.079Z,20.40
2022-10-09T20:40:26.279Z,20.40
2022-10-09T20:42:58.105Z,20.40
2022-10-09T20:45:29.921Z,20.30
2022-10-09T20:48:01.714Z,20.30
2022-10-09T20:50:36.677Z,20.30
2022-10-09T20:53:10.032Z,20.20
2022-10-09T20:55:43.026Z,20.10
2022-10-09T20:58:14.777Z,20.00
2022-10-09T21:00:46.574Z,20.00
2022-10-09T21:03:18.445Z,19.90
2022-10-09T21:05:50.296Z,19.60
2022-10-09T21:08:22.115Z,19.30
2022-10-09T21:10:55.240Z,19.00
2022-10-09T21:13:27.048Z,18.70
2022-10-09T21:15:58.862Z,18.40
2022-10-09T21:18:30.651Z,18.10
2022-10-09T21:21:05.389Z,17.80
2022-10-09T21:23:37.532Z,17.50
2022-10-09T21:26:14.096Z,17.40
2022-10-09T21:28:46.456Z,17.20
2022-10-09T21:31:20.751Z,16.90
2022-10-09T21:33:52.649Z,16.80
2022-10-09T21:36:32.426Z,16.70
2022-10-09T21:39:05.842Z,16.60
2022-10-09T21:41:39.292Z,16.50
2022-10-09T21:44:11.263Z,16.40
2022-10-09T21:46:43.123Z,16.30
2022-10-09T21:49:19.901Z,16.20
2022-10-09T21:51:52.275Z,16.10
2022-10-09T21:54:24.104Z,16.00
2022-10-09T21:56:57.229Z,16.00
2022-10-09T21:59:29.230Z,15.90
2022-10-09T22:02:01.192Z,15.80
2022-10-09T22:04:33.246Z,15.70
2022-10-09T22:07:05.118Z,15.60
2022-10-09T22:09:36.917Z,15.60
2022-10-09T22:12:10.059Z,15.50
2022-10-09T22:14:41.975Z,15.40
2022-10-09T22:17:13.605Z,15.30
2022-10-09T22:19:45.271Z,15.30
2022-10-09T22:22:16.913Z,15.20
2022-10-09T22:24:48.561Z,15.10
2022-10-09T22:27:21.525Z,15.00
2022-10-09T22:29:53.290Z,14.90
2022-10-09T22:32:24.917Z,14.80
2022-10-09T22:34:56.642Z,14.70
2022-10-09T22:37:28.251Z,14.60
2022-10-09T22:39:59.896Z,14.60
2022-10-09T22:42:33.244Z,14.50
2022-10-09T22:45:05.410Z,14.40
2022-10-09T22:47:37.052Z,14.30
2022-10-09T22:50:09.161Z,14.30
2022-10-09T22:52:40.823Z,14.20
2022-10-09T22:55:12.425Z,14.10
2022-10-09T22:57:45.387Z,14.00
2022-10-09T23:00:17.236Z,14.00
2022-10-09T23:02:49.128Z,13.90
2022-10-09T23:05:23.068Z,13.90
2022-10-09T23:07:54.741Z,13.80
2022-10-09T23:10:26.407Z,13.70
2022-10-09T23:12:59.375Z,13.60
2022-10-09T23:15:31.129Z,13.60
2022-10-09T23:18:03.066Z,13.50
2022-10-09T23:20:35.779Z,13.40
2022-10-09T23:23:07.409Z,13.40
2022-10-09T23:25:39.616Z,13.30
2022-10-09T23:28:12.663Z,13.30
2022-10-09T23:30:44.316Z,13.30
2022-10-09T23:33:15.955Z,13.20
2022-10-09T23:35:47.552Z,13.10
2022-10-09T23:38:19.212Z,13.10
2022-10-09T23:40:54.517Z,13.00
2022-10-09T23:43:27.638Z,12.90
2022-10-09T23:46:00.044Z,12.90
2022-10-09T23:48:31.722Z,12.80
2022-10-09T23:51:05.054Z,12.70
2022-10-09T23:53:36.709Z,12.70
2022-10-09T23:56:14.455Z,12.70
2022-10-09T23:58:47.665Z,12.60
